createdAt,value
2022-09-15T00:22:01.345Z,84
2022-09-15T00:51:25.753Z,84
2022-09-15T01:20:45.802Z,85
2022-09-15T01:50:01.789Z,85
2022-09-15T02:19:21.156Z,86
2022-09-15T02:48:39.704Z,84
2022-09-15T03:18:01.054Z,84
2022-09-15T03:47:25.581Z,85
2022-09-15T04:16:45.780Z,86
2022-09-15T04:46:02.642Z,90
2022-09-15T05:15:21.924Z,90
2022-09-15T05:44:39.052Z,91
2022-09-15T06:13:58.174Z,91
2022-09-15T06:43:19.373Z,91
2022-09-15T07:12:40.029Z,92
2022-09-15T07:41:58.306Z,93
2022-09-15T08:11:22.223Z,92
2022-09-15T08:40:34.119Z,88
2022-09-15T09:09:45.343Z,91
2022-09-15T09:38:56.448Z,92
2022-09-15T10:08:03.316Z,90
2022-09-15T10:37:11.921Z,92
2022-09-15T11:06:27.283Z,84
2022-09-15T11:35:40.781Z,84
2022-09-15T12:05:06.175Z,84
2022-09-15T12:34:18.031Z,83
2022-09-15T13:03:38.296Z,81
2022-09-15T13:04:44.362Z,80
2022-09-15T14:02:45.919Z,73
2022-09-15T14:31:55.897Z,74
2022-09-15T15:01:21.834Z,56
2022-09-15T15:30:39.951Z,68
2022-09-15T16:00:00.636Z,64
2022-09-15T16:29:23.177Z,64
2022-09-15T16:58:43.018Z,67
2022-09-15T17:27:52.910Z,70
2022-09-15T17:56:53.870Z,72
2022-09-15T18:26:03.890Z,75
2022-09-15T18:55:16.049Z,75
2022-09-15T19:24:24.426Z,79
2022-09-15T19:53:40.365Z,80
2022-09-15T20:22:58.006Z,81
2022-09-15T20:52:18.267Z,83
2022-09-15T21:21:31.789Z,82
2022-09-15T21:50:39.106Z,84
2022-09-15T22:19:53.936Z,86
2022-09-15T22:49:05.517Z,83
2022-09-15T23:18:20.272Z,85
2022-09-15T23:47:30.875Z,87
